Time;durP1;ratioP1;P1;durP2;ratioP2;P2;SDS_P1;SDS_P2;PMS_P1;PMS_P2;Temp;Humidity;BMP_temperature;BMP_pressure;BME280_temperature;BME280_humidity;BME280_pressure;Samples;Min_cycle;Max_cycle;Signal;HPM_P1;HPM_P2
2022/10/10 00:01:07;;;;;;;;;;;14.10;99.90;;;;;;5096584;28;19912;-63
2022/10/10 00:03:32;;;;;;;;;;;14.00;99.90;;;;;;5100936;28;19920;-64
2022/10/10 00:05:58;;;;;;;;;;;14.00;99.90;;;;;;5096141;28;19913;-63
2022/10/10 00:08:23;;;;;;;;;;;13.90;99.90;;;;;;5099616;28;19920;-63
2022/10/10 00:10:49;;;;;;;;;;;14.00;99.90;;;;;;5100124;28;19920;-63
2022/10/10 00:13:14;;;;;;;;;;;13.90;99.90;;;;;;5096589;28;19965;-63
2022/10/10 00:15:40;;;;;;;;;;;13.80;99.90;;;;;;5096963;28;19919;-63
2022/10/10 00:18:05;;;;;;;;;;;13.70;99.90;;;;;;5097151;28;19939;-63
2022/10/10 00:20:31;;;;;;;;;;;13.60;99.90;;;;;;5096271;28;19912;-64
2022/10/10 00:22:56;;;;;;;;;;;13.50;99.90;;;;;;5091816;28;21654;-63
2022/10/10 00:25:22;;;;;;;;;;;13.40;99.90;;;;;;5092296;28;20366;-63
2022/10/10 00:27:47;;;;;;;;;;;13.30;99.90;;;;;;5099123;28;19920;-63
2022/10/10 00:30:13;;;;;;;;;;;13.30;99.90;;;;;;5088914;28;19943;-62
2022/10/10 00:32:38;;;;;;;;;;;13.40;99.90;;;;;;5098739;28;20030;-63
2022/10/10 00:35:05;;;;;;;;;;;13.40;99.90;;;;;;5101977;28;20005;-63
2022/10/10 00:37:30;;;;;;;;;;;13.50;99.90;;;;;;5093577;28;19913;-63
2022/10/10 00:39:56;;;;;;;;;;;13.60;99.90;;;;;;5100711;28;19919;-64
2022/10/10 00:42:21;;;;;;;;;;;13.60;99.90;;;;;;5092479;28;19971;-64
2022/10/10 00:45:07;;;;;;;;;;;13.70;99.90;;;;;;5097964;28;20034;-64
2022/10/10 00:47:32;;;;;;;;;;;13.80;99.90;;;;;;5094020;28;19984;-63
2022/10/10 00:49:58;;;;;;;;;;;13.70;99.90;;;;;;5095194;28;19924;-64
2022/10/10 00:52:24;;;;;;;;;;;13.50;99.90;;;;;;5094268;28;19916;-64
2022/10/10 00:54:49;;;;;;;;;;;13.60;99.90;;;;;;5099476;28;20266;-63
2022/10/10 00:57:15;;;;;;;;;;;13.60;99.90;;;;;;5099160;28;19919;-63
2022/10/10 00:59:42;;;;;;;;;;;13.60;99.90;;;;;;5097654;28;20274;-63
2022/10/10 01:02:07;;;;;;;;;;;13.60;99.90;;;;;;5102677;28;19927;-63
2022/10/10 01:04:35;;;;;;;;;;;13.60;99.90;;;;;;5097517;28;19916;-63
2022/10/10 01:07:02;;;;;;;;;;;13.60;99.90;;;;;;5103841;28;19976;-63
2022/10/10 01:09:27;;;;;;;;;;;13.60;99.90;;;;;;5098859;28;19928;-63
2022/10/10 01:12:16;;;;;;;;;;;13.60;99.90;;;;;;5098270;28;19922;-63
2022/10/10 01:14:54;;;;;;;;;;;13.60;99.90;;;;;;5097588;28;19912;-63
2022/10/10 01:17:23;;;;;;;;;;;13.50;99.90;;;;;;5100005;28;19912;-63
2022/10/10 01:20:00;;;;;;;;;;;13.40;99.90;;;;;;5102102;28;20056;-62
2022/10/10 01:22:29;;;;;;;;;;;13.30;99.90;;;;;;5106844;28;19920;-63
2022/10/10 01:25:09;;;;;;;;;;;13.30;99.90;;;;;;5096134;28;19955;-63
2022/10/10 01:27:44;;;;;;;;;;;13.40;99.90;;;;;;5099320;28;19916;-63
2022/10/10 01:30:12;;;;;;;;;;;13.40;99.90;;;;;;5099932;28;19963;-63
2022/10/10 01:32:44;;;;;;;;;;;13.40;99.90;;;;;;5098739;28;19912;-63
2022/10/10 01:35:09;;;;;;;;;;;13.40;99.90;;;;;;5100919;28;19913;-62
2022/10/10 01:37:39;;;;;;;;;;;13.30;99.90;;;;;;5101200;28;19912;-63
2022/10/10 01:40:08;;;;;;;;;;;13.50;99.90;;;;;;5092286;28;19920;-63
2022/10/10 01:42:48;;;;;;;;;;;13.50;99.90;;;;;;5093173;28;19912;-63
2022/10/10 01:45:14;;;;;;;;;;;13.50;99.90;;;;;;5103072;28;19912;-63
2022/10/10 01:47:39;;;;;;;;;;;13.60;99.90;;;;;;5095365;28;19912;-63
2022/10/10 01:50:07;;;;;;;;;;;13.70;99.90;;;;;;5094434;28;19954;-63
2022/10/10 01:52:39;;;;;;;;;;;13.80;99.90;;;;;;5100848;28;19916;-63
2022/10/10 01:55:23;;;;;;;;;;;13.80;99.90;;;;;;5097968;28;19908;-63
2022/10/10 01:57:56;;;;;;;;;;;13.90;99.90;;;;;;5095858;28;20433;-63
2022/10/10 02:00:22;;;;;;;;;;;13.90;99.90;;;;;;5102093;28;19912;-62
2022/10/10 02:02:50;;;;;;;;;;;14.00;99.90;;;;;;5096200;28;19951;-63
2022/10/10 02:05:16;;;;;;;;;;;14.00;99.90;;;;;;5097960;28;19950;-64
2022/10/10 02:07:54;;;;;;;;;;;13.90;99.90;;;;;;5100442;28;19912;-64
2022/10/10 02:10:22;;;;;;;;;;;13.80;99.90;;;;;;5095156;28;19928;-64
2022/10/10 02:12:48;;;;;;;;;;;13.90;99.90;;;;;;5098605;28;19919;-63
2022/10/10 02:15:16;;;;;;;;;;;13.80;99.90;;;;;;5097741;28;20007;-63
2022/10/10 02:17:43;;;;;;;;;;;13.60;99.90;;;;;;5096453;28;19920;-64
2022/10/10 02:20:10;;;;;;;;;;;13.60;99.90;;;;;;5095777;28;20311;-63
2022/10/10 02:22:38;;;;;;;;;;;13.70;99.90;;;;;;5099685;28;19937;-64
2022/10/10 02:25:04;;;;;;;;;;;13.80;99.90;;;;;;5096891;28;20250;-63
2022/10/10 02:27:44;;;;;;;;;;;13.90;99.90;;;;;;5101543;28;20404;-63
2022/10/10 02:30:10;;;;;;;;;;;14.00;99.90;;;;;;5095524;28;19987;-63
2022/10/10 02:32:41;;;;;;;;;;;14.10;99.90;;;;;;5099900;28;19923;-63
2022/10/10 02:35:09;;;;;;;;;;;14.10;99.90;;;;;;5097010;28;19912;-64
2022/10/10 02:37:35;;;;;;;;;;;14.10;99.90;;;;;;5098864;28;20054;-62
2022/10/10 02:40:02;;;;;;;;;;;14.10;99.90;;;;;;5098915;28;19912;-63
2022/10/10 02:42:28;;;;;;;;;;;14.10;99.90;;;;;;5094445;28;20582;-63
2022/10/10 02:44:54;;;;;;;;;;;14.20;99.90;;;;;;5094164;28;19924;-63
2022/10/10 02:47:20;;;;;;;;;;;14.30;99.90;;;;;;5091986;28;20011;-63
2022/10/10 02:49:46;;;;;;;;;;;14.20;99.90;;;;;;5095064;28;19921;-63
2022/10/10 02:52:13;;;;;;;;;;;14.00;99.90;;;;;;5094806;28;19912;-63
2022/10/10 02:54:39;;;;;;;;;;;14.00;99.90;;;;;;5089763;28;19916;-64
2022/10/10 02:57:05;;;;;;;;;;;13.90;99.90;;;;;;5098443;28;20101;-63
2022/10/10 02:59:30;;;;;;;;;;;13.80;99.90;;;;;;5097804;28;20455;-63
2022/10/10 03:01:56;;;;;;;;;;;13.90;99.90;;;;;;5113906;28;19920;-63
2022/10/10 03:04:22;;;;;;;;;;;13.90;99.90;;;;;;5091008;28;19935;-63
2022/10/10 03:06:48;;;;;;;;;;;13.90;99.90;;;;;;5092430;28;19967;-63
2022/10/10 03:09:13;;;;;;;;;;;13.90;99.90;;;;;;5093850;28;19992;-63
2022/10/10 03:11:40;;;;;;;;;;;14.00;99.90;;;;;;5093915;28;20392;-63
2022/10/10 03:14:06;;;;;;;;;;;13.90;99.90;;;;;;5093790;28;19916;-63
2022/10/10 03:16:31;;;;;;;;;;;13.90;99.90;;;;;;5082062;28;19917;-63
2022/10/10 03:18:57;;;;;;;;;;;13.80;99.90;;;;;;5100414;28;19916;-63
2022/10/10 03:21:23;;;;;;;;;;;13.80;99.90;;;;;;5099807;28;19912;-64
2022/10/10 03:23:48;;;;;;;;;;;13.80;99.90;;;;;;5096218;28;19917;-63
2022/10/10 03:26:14;;;;;;;;;;;13.70;99.90;;;;;;5100100;28;19934;-63
2022/10/10 03:28:39;;;;;;;;;;;13.60;99.90;;;;;;5095495;28;19948;-62
2022/10/10 03:31:05;;;;;;;;;;;13.60;99.90;;;;;;5098573;28;20100;-63
2022/10/10 03:33:30;;;;;;;;;;;13.50;99.90;;;;;;5092792;28;19912;-63
2022/10/10 03:35:56;;;;;;;;;;;13.50;99.90;;;;;;5092731;28;19919;-63
2022/10/10 03:38:21;;;;;;;;;;;13.40;99.90;;;;;;5098952;28;19912;-64
2022/10/10 03:40:47;;;;;;;;;;;13.40;99.90;;;;;;5093354;28;19916;-63
2022/10/10 03:43:13;;;;;;;;;;;13.40;99.90;;;;;;5097638;28;19923;-64
2022/10/10 03:45:40;;;;;;;;;;;13.40;99.90;;;;;;5091624;28;19919;-63
2022/10/10 03:48:06;;;;;;;;;;;13.50;99.90;;;;;;5087438;28;19931;-63
2022/10/10 03:50:31;;;;;;;;;;;13.50;99.90;;;;;;5097293;28;19916;-63
2022/10/10 03:52:57;;;;;;;;;;;13.50;99.90;;;;;;5097813;28;19923;-63
2022/10/10 03:55:23;;;;;;;;;;;13.50;99.90;;;;;;5100290;28;19920;-63
2022/10/10 03:57:48;;;;;;;;;;;13.50;99.90;;;;;;5095697;28;19947;-62
2022/10/10 04:00:14;;;;;;;;;;;13.50;99.90;;;;;;5093544;28;20250;-63
2022/10/10 04:02:39;;;;;;;;;;;13.50;99.90;;;;;;5093826;28;19924;-63
2022/10/10 04:05:05;;;;;;;;;;;13.50;99.90;;;;;;5089375;28;19912;-63
2022/10/10 04:07:31;;;;;;;;;;;13.60;99.90;;;;;;5100154;28;20262;-62
2022/10/10 04:09:56;;;;;;;;;;;13.60;99.90;;;;;;5091562;28;19931;-62
2022/10/10 04:12:22;;;;;;;;;;;13.70;99.90;;;;;;5096897;28;19912;-63
2022/10/10 04:14:47;;;;;;;;;;;13.60;99.90;;;;;;5085473;28;19927;-64
2022/10/10 04:17:13;;;;;;;;;;;13.60;99.90;;;;;;5088518;28;20650;-63
2022/10/10 04:19:38;;;;;;;;;;;13.60;99.90;;;;;;5092909;28;19951;-62
2022/10/10 04:22:04;;;;;;;;;;;13.70;99.90;;;;;;5095980;28;19965;-63
2022/10/10 04:24:29;;;;;;;;;;;13.60;99.90;;;;;;5090549;28;19916;-63
2022/10/10 04:26:55;;;;;;;;;;;13.70;99.90;;;;;;5093713;28;19952;-64
2022/10/10 04:29:20;;;;;;;;;;;13.70;99.90;;;;;;5101889;28;19943;-64
2022/10/10 04:31:46;;;;;;;;;;;13.60;99.90;;;;;;5100483;28;19943;-63
2022/10/10 04:34:11;;;;;;;;;;;13.50;99.90;;;;;;5093374;28;19923;-63
2022/10/10 04:36:37;;;;;;;;;;;13.50;99.90;;;;;;5101389;28;19920;-64
2022/10/10 04:39:02;;;;;;;;;;;13.40;99.90;;;;;;5090536;28;19963;-63
2022/10/10 04:41:28;;;;;;;;;;;13.50;99.90;;;;;;5103647;28;19923;-63
2022/10/10 04:43:53;;;;;;;;;;;13.50;99.90;;;;;;5094878;28;19920;-63
2022/10/10 04:46:19;;;;;;;;;;;13.50;99.90;;;;;;5095143;28;19911;-64
2022/10/10 04:48:45;;;;;;;;;;;13.50;99.90;;;;;;5090902;28;19927;-62
2022/10/10 04:51:10;;;;;;;;;;;13.60;99.90;;;;;;5093432;28;19912;-63
2022/10/10 04:53:36;;;;;;;;;;;13.70;99.90;;;;;;5094273;28;19940;-64
2022/10/10 04:56:01;;;;;;;;;;;13.70;99.90;;;;;;5101964;28;19975;-63
2022/10/10 04:58:27;;;;;;;;;;;13.50;99.90;;;;;;5096863;28;19912;-63
2022/10/10 05:00:53;;;;;;;;;;;13.50;99.90;;;;;;5105015;28;19917;-63
2022/10/10 05:03:19;;;;;;;;;;;13.40;99.90;;;;;;5089626;28;19912;-63
2022/10/10 05:05:44;;;;;;;;;;;13.20;99.90;;;;;;5084411;28;19982;-63
2022/10/10 05:08:10;;;;;;;;;;;13.10;99.90;;;;;;5083918;28;20385;-63
2022/10/10 05:10:37;;;;;;;;;;;13.10;99.90;;;;;;5088802;28;19994;-64
2022/10/10 05:13:04;;;;;;;;;;;12.80;99.90;;;;;;5092708;28;20329;-63
2022/10/10 05:15:30;;;;;;;;;;;12.30;99.90;;;;;;5085853;28;19932;-63
2022/10/10 05:17:55;;;;;;;;;;;11.90;99.90;;;;;;5085425;28;19912;-63
2022/10/10 05:20:21;;;;;;;;;;;11.50;99.90;;;;;;5085132;28;20005;-63
2022/10/10 05:22:46;;;;;;;;;;;11.40;99.90;;;;;;5087033;28;19917;-62
2022/10/10 05:25:12;;;;;;;;;;;11.30;99.90;;;;;;5085212;28;19913;-62
2022/10/10 05:27:37;;;;;;;;;;;11.20;99.90;;;;;;5085413;28;19976;-63
2022/10/10 05:30:04;;;;;;;;;;;11.10;99.90;;;;;;5079869;28;19928;-63
2022/10/10 05:32:29;;;;;;;;;;;11.00;99.90;;;;;;5085030;28;19916;-63
2022/10/10 05:34:55;;;;;;;;;;;11.00;99.90;;;;;;5085737;28;19916;-64
2022/10/10 05:37:20;;;;;;;;;;;11.00;99.90;;;;;;5080782;28;20651;-63
2022/10/10 05:39:47;;;;;;;;;;;11.10;99.90;;;;;;5078614;28;19919;-63
2022/10/10 05:42:13;;;;;;;;;;;11.10;99.90;;;;;;5087662;28;20441;-63
2022/10/10 05:44:39;;;;;;;;;;;11.10;99.90;;;;;;5096163;28;19954;-63
2022/10/10 05:47:04;;;;;;;;;;;11.10;99.90;;;;;;5084523;28;19919;-63
2022/10/10 05:49:30;;;;;;;;;;;11.10;99.90;;;;;;5089276;28;19928;-63
2022/10/10 05:51:55;;;;;;;;;;;11.10;99.90;;;;;;5088702;28;19912;-63
2022/10/10 05:54:21;;;;;;;;;;;11.10;99.90;;;;;;5088507;28;19912;-63
2022/10/10 05:56:46;;;;;;;;;;;11.10;99.90;;;;;;5087520;28;19992;-62
2022/10/10 05:59:12;;;;;;;;;;;11.10;99.90;;;;;;5096325;28;19957;-63
2022/10/10 06:01:38;;;;;;;;;;;11.10;99.90;;;;;;5093004;28;20360;-63
2022/10/10 06:04:03;;;;;;;;;;;11.20;99.90;;;;;;5095044;28;19916;-63
2022/10/10 06:06:29;;;;;;;;;;;11.10;99.90;;;;;;5091180;28;19916;-63
2022/10/10 06:08:54;;;;;;;;;;;11.10;99.90;;;;;;5090050;28;19920;-62
2022/10/10 06:11:22;;;;;;;;;;;11.10;99.90;;;;;;5089033;28;19934;-62
2022/10/10 06:13:51;;;;;;;;;;;11.10;99.90;;;;;;5099415;28;19912;-63
2022/10/10 06:16:17;;;;;;;;;;;11.10;99.90;;;;;;5085094;28;19912;-63
2022/10/10 06:18:42;;;;;;;;;;;11.10;99.90;;;;;;5088928;28;19943;-62
2022/10/10 06:21:09;;;;;;;;;;;11.10;99.90;;;;;;5091786;28;19912;-62
2022/10/10 06:23:35;;;;;;;;;;;11.30;99.90;;;;;;5097843;28;19928;-64
2022/10/10 06:26:00;;;;;;;;;;;11.30;99.90;;;;;;5082963;28;20319;-63
2022/10/10 06:28:26;;;;;;;;;;;11.40;99.90;;;;;;5086519;28;19936;-63
2022/10/10 06:30:51;;;;;;;;;;;11.30;99.90;;;;;;5079822;28;19923;-63
2022/10/10 06:33:18;;;;;;;;;;;11.30;99.90;;;;;;5080775;28;19920;-63
2022/10/10 06:35:45;;;;;;;;;;;11.30;99.90;;;;;;5078224;28;20353;-63
2022/10/10 06:38:11;;;;;;;;;;;11.40;99.90;;;;;;5077998;28;19926;-62
2022/10/10 06:40:37;;;;;;;;;;;11.50;99.90;;;;;;5076624;28;19999;-63
2022/10/10 06:43:03;;;;;;;;;;;11.50;99.90;;;;;;5088744;28;19916;-63
2022/10/10 06:45:29;;;;;;;;;;;11.60;99.90;;;;;;5081805;28;19955;-62
2022/10/10 06:47:54;;;;;;;;;;;11.70;99.90;;;;;;5081227;28;19919;-64
2022/10/10 06:50:20;;;;;;;;;;;11.80;99.90;;;;;;5085202;28;20728;-64
2022/10/10 06:52:45;;;;;;;;;;;11.70;99.90;;;;;;5086072;28;20366;-62
2022/10/10 06:55:11;;;;;;;;;;;11.70;99.90;;;;;;5087607;28;19916;-63
2022/10/10 06:57:36;;;;;;;;;;;11.70;99.90;;;;;;5082851;28;19912;-62
2022/10/10 07:00:03;;;;;;;;;;;11.70;99.90;;;;;;5084005;28;19945;-64
2022/10/10 07:02:30;;;;;;;;;;;11.70;99.90;;;;;;5086160;28;19944;-64
2022/10/10 07:04:56;;;;;;;;;;;11.70;99.90;;;;;;5097924;28;19916;-64
2022/10/10 07:07:21;;;;;;;;;;;11.60;99.90;;;;;;5091268;28;19918;-64
2022/10/10 07:09:47;;;;;;;;;;;11.60;99.90;;;;;;5093890;28;19920;-64
2022/10/10 07:12:12;;;;;;;;;;;11.70;99.90;;;;;;5085677;28;19935;-65
2022/10/10 07:14:38;;;;;;;;;;;11.80;99.90;;;;;;5085257;28;19919;-67
2022/10/10 07:17:03;;;;;;;;;;;11.80;99.90;;;;;;5087988;28;19912;-66
2022/10/10 07:19:29;;;;;;;;;;;11.80;99.90;;;;;;5083287;28;19920;-66
2022/10/10 07:21:54;;;;;;;;;;;11.60;99.90;;;;;;5080753;28;19912;-64
2022/10/10 07:24:20;;;;;;;;;;;11.50;99.90;;;;;;5082755;28;20044;-65
2022/10/10 07:26:45;;;;;;;;;;;11.40;99.90;;;;;;5087446;28;19935;-66
2022/10/10 07:29:11;;;;;;;;;;;11.30;99.90;;;;;;5079251;28;20289;-65
2022/10/10 07:31:36;;;;;;;;;;;11.30;99.90;;;;;;5076615;28;19954;-65
2022/10/10 07:34:04;;;;;;;;;;;11.20;99.90;;;;;;5075115;28;19920;-66
2022/10/10 07:36:29;;;;;;;;;;;11.10;99.90;;;;;;5073493;28;19925;-65
2022/10/10 07:38:55;;;;;;;;;;;11.10;99.90;;;;;;5068282;28;19995;-66
2022/10/10 07:41:21;;;;;;;;;;;11.10;99.90;;;;;;5074463;28;19920;-64
2022/10/10 07:43:46;;;;;;;;;;;11.10;99.90;;;;;;5073380;28;19920;-65
2022/10/10 07:46:17;;;;;;;;;;;11.10;99.90;;;;;;5081860;28;19912;-67
2022/10/10 07:48:43;;;;;;;;;;;11.20;99.90;;;;;;5083059;28;19931;-65
2022/10/10 07:51:08;;;;;;;;;;;11.20;99.90;;;;;;5083997;28;19911;-66
2022/10/10 07:53:34;;;;;;;;;;;11.20;99.90;;;;;;5087113;28;19912;-65
2022/10/10 07:56:02;;;;;;;;;;;11.20;99.90;;;;;;5078737;28;20007;-64
2022/10/10 07:58:28;;;;;;;;;;;11.10;99.90;;;;;;5084215;28;19912;-64
2022/10/10 08:01:00;;;;;;;;;;;11.10;99.90;;;;;;5083869;28;20361;-65
2022/10/10 08:03:26;;;;;;;;;;;11.20;99.90;;;;;;5084284;28;19916;-66
2022/10/10 08:05:51;;;;;;;;;;;11.30;99.90;;;;;;5082667;28;20357;-65
2022/10/10 08:08:17;;;;;;;;;;;11.30;99.90;;;;;;5077287;28;20286;-66
2022/10/10 08:10:43;;;;;;;;;;;11.20;99.90;;;;;;5081756;28;20008;-64
2022/10/10 08:13:09;;;;;;;;;;;11.30;99.90;;;;;;5080876;28;20508;-66
2022/10/10 08:15:34;;;;;;;;;;;11.20;99.90;;;;;;5081228;28;20006;-65
2022/10/10 08:18:00;;;;;;;;;;;11.30;99.90;;;;;;5079255;28;19920;-65
2022/10/10 08:20:25;;;;;;;;;;;11.30;99.90;;;;;;5073183;28;19931;-65
2022/10/10 08:22:51;;;;;;;;;;;11.40;99.90;;;;;;5089372;28;20326;-66
2022/10/10 08:25:16;;;;;;;;;;;11.30;99.90;;;;;;5068809;28;19995;-65
2022/10/10 08:27:42;;;;;;;;;;;11.40;99.90;;;;;;5082086;28;20407;-64
2022/10/10 08:30:07;;;;;;;;;;;11.30;99.90;;;;;;5082489;28;19916;-65
2022/10/10 08:32:33;;;;;;;;;;;11.40;99.90;;;;;;5091012;28;19908;-65
2022/10/10 08:34:58;;;;;;;;;;;11.40;99.90;;;;;;5092789;28;19962;-64
2022/10/10 08:37:24;;;;;;;;;;;11.50;99.90;;;;;;5092476;28;19996;-66
2022/10/10 08:39:49;;;;;;;;;;;11.50;99.90;;;;;;5088269;28;19955;-65
2022/10/10 08:42:20;;;;;;;;;;;11.60;99.90;;;;;;5083046;28;19925;-66
2022/10/10 08:44:46;;;;;;;;;;;11.70;99.90;;;;;;5088712;28;20323;-65
2022/10/10 08:47:14;;;;;;;;;;;11.70;99.90;;;;;;5089771;28;19912;-66
2022/10/10 08:49:53;;;;;;;;;;;11.70;99.90;;;;;;5090660;28;19975;-65
2022/10/10 08:52:38;;;;;;;;;;;11.70;99.90;;;;;;5084826;28;19919;-66
2022/10/10 08:55:15;;;;;;;;;;;11.80;99.90;;;;;;5089003;28;19916;-66
2022/10/10 08:57:54;;;;;;;;;;;12.00;99.90;;;;;;5077747;28;19928;-65
2022/10/10 09:00:20;;;;;;;;;;;12.00;99.90;;;;;;5068794;28;19922;-65
2022/10/10 09:02:55;;;;;;;;;;;12.00;99.90;;;;;;5080310;28;20395;-65
2022/10/10 09:05:44;;;;;;;;;;;12.00;99.90;;;;;;5073197;28;19919;-65
2022/10/10 09:08:09;;;;;;;;;;;12.10;99.90;;;;;;5078322;28;19992;-66
2022/10/10 09:10:51;;;;;;;;;;;12.10;99.90;;;;;;5079486;28;19998;-65
2022/10/10 09:13:30;;;;;;;;;;;12.20;99.90;;;;;;5078481;28;19947;-65
2022/10/10 09:15:59;;;;;;;;;;;12.20;99.90;;;;;;5076851;28;20042;-65
2022/10/10 09:18:36;;;;;;;;;;;12.30;99.90;;;;;;5082931;28;19912;-65
2022/10/10 09:21:25;;;;;;;;;;;12.30;99.90;;;;;;5083780;28;19920;-64
2022/10/10 09:23:57;;;;;;;;;;;12.30;99.90;;;;;;5082864;28;19920;-66
2022/10/10 09:26:27;;;;;;;;;;;12.30;99.90;;;;;;5086570;28;19920;-65
2022/10/10 09:28:58;;;;;;;;;;;12.20;99.90;;;;;;5089773;28;19927;-66
2022/10/10 09:31:59;;;;;;;;;;;12.30;99.90;;;;;;5084156;28;19920;-66
2022/10/10 09:34:39;;;;;;;;;;;12.40;99.90;;;;;;5058829;28;19963;-66
2022/10/10 09:37:11;;;;;;;;;;;12.60;99.90;;;;;;5079123;28;19917;-67
2022/10/10 09:39:55;;;;;;;;;;;12.60;99.90;;;;;;5084346;28;19912;-65
2022/10/10 09:42:28;;;;;;;;;;;12.50;99.90;;;;;;5086288;28;19951;-65
2022/10/10 09:44:53;;;;;;;;;;;12.50;99.90;;;;;;5083691;28;19912;-65
2022/10/10 09:47:19;;;;;;;;;;;12.70;99.90;;;;;;5087661;28;20324;-66
2022/10/10 09:49:44;;;;;;;;;;;12.70;99.90;;;;;;5088696;28;20227;-66
2022/10/10 09:52:22;;;;;;;;;;;12.80;99.90;;;;;;5085075;28;19924;-65
2022/10/10 09:54:48;;;;;;;;;;;12.80;99.90;;;;;;5081530;28;19923;-65
2022/10/10 09:57:14;;;;;;;;;;;13.00;99.90;;;;;;5084581;28;19912;-66
2022/10/10 09:59:44;;;;;;;;;;;13.00;99.90;;;;;;5088538;28;19908;-65
2022/10/10 10:02:17;;;;;;;;;;;12.90;99.90;;;;;;5085886;28;19916;-66
2022/10/10 10:04:43;;;;;;;;;;;12.90;99.90;;;;;;5082328;28;19912;-66
2022/10/10 10:07:19;;;;;;;;;;;13.00;99.90;;;;;;5088331;28;19912;-65
2022/10/10 10:09:49;;;;;;;;;;;13.10;99.90;;;;;;5091007;28;19920;-65
2022/10/10 10:12:16;;;;;;;;;;;13.00;99.90;;;;;;5080339;28;20307;-65
2022/10/10 10:14:42;;;;;;;;;;;13.10;99.90;;;;;;5083396;28;19920;-67
2022/10/10 10:17:09;;;;;;;;;;;13.10;99.90;;;;;;5084538;28;19912;-66
2022/10/10 10:19:36;;;;;;;;;;;13.20;99.90;;;;;;5086559;28;19997;-66
2022/10/10 10:22:02;;;;;;;;;;;13.30;99.90;;;;;;5083483;28;19958;-66
2022/10/10 10:24:35;;;;;;;;;;;13.30;99.90;;;;;;5087822;28;19912;-67
2022/10/10 10:27:15;;;;;;;;;;;13.30;99.90;;;;;;5087114;28;19952;-67
2022/10/10 10:29:44;;;;;;;;;;;13.30;99.90;;;;;;5080957;28;19939;-67
2022/10/10 10:32:10;;;;;;;;;;;13.30;99.90;;;;;;5076075;28;19920;-66
2022/10/10 10:34:54;;;;;;;;;;;13.20;99.90;;;;;;5083500;28;20269;-66
2022/10/10 10:37:19;;;;;;;;;;;13.30;99.90;;;;;;5084338;28;20011;-65
2022/10/10 10:39:51;;;;;;;;;;;13.40;99.90;;;;;;5090775;28;20002;-66
2022/10/10 10:42:35;;;;;;;;;;;13.40;99.90;;;;;;5084777;28;19928;-66
2022/10/10 10:45:07;;;;;;;;;;;13.60;99.90;;;;;;5083079;28;19913;-67
2022/10/10 10:47:47;;;;;;;;;;;13.70;99.90;;;;;;5084109;28;19916;-67
2022/10/10 10:50:22;;;;;;;;;;;13.80;99.90;;;;;;5084435;28;19924;-65
2022/10/10 10:53:00;;;;;;;;;;;13.90;99.90;;;;;;5085268;28;19916;-66
2022/10/10 10:55:39;;;;;;;;;;;14.00;99.90;;;;;;5081584;28;19916;-66
2022/10/10 10:58:29;;;;;;;;;;;14.10;99.90;;;;;;5083956;28;19927;-66
2022/10/10 11:00:57;;;;;;;;;;;14.10;99.90;;;;;;5080491;28;20003;-66
2022/10/10 11:03:22;;;;;;;;;;;14.10;99.90;;;;;;5084168;28;19993;-66
2022/10/10 11:06:00;;;;;;;;;;;14.20;98.90;;;;;;5081810;28;20369;-65
2022/10/10 11:08:26;;;;;;;;;;;14.20;96.90;;;;;;5085899;28;19952;-65
2022/10/10 11:11:00;;;;;;;;;;;14.20;94.50;;;;;;5084298;28;20381;-67
2022/10/10 11:13:35;;;;;;;;;;;14.20;92.70;;;;;;5088463;28;19920;-66
2022/10/10 11:16:08;;;;;;;;;;;14.20;92.40;;;;;;5080626;28;19912;-66
2022/10/10 11:18:36;;;;;;;;;;;14.30;92.20;;;;;;5086117;28;20262;-66
2022/10/10 11:21:01;;;;;;;;;;;14.30;89.40;;;;;;5083405;28;19916;-66
2022/10/10 11:23:29;;;;;;;;;;;14.30;89.80;;;;;;5071713;28;19965;-65
2022/10/10 11:26:04;;;;;;;;;;;14.40;89.50;;;;;;5080675;28;20009;-66
2022/10/10 11:28:36;;;;;;;;;;;14.40;88.60;;;;;;5075195;28;20286;-65
2022/10/10 11:31:05;;;;;;;;;;;14.50;89.80;;;;;;5084070;28;20003;-66
2022/10/10 11:33:54;;;;;;;;;;;14.60;89.10;;;;;;5086710;28;19918;-66
2022/10/10 11:36:21;;;;;;;;;;;14.60;85.50;;;;;;5079004;28;20003;-66
2022/10/10 11:38:49;;;;;;;;;;;14.60;87.30;;;;;;5079406;28;20374;-67
2022/10/10 11:41:41;;;;;;;;;;;14.60;83.60;;;;;;5087107;28;20418;-65
2022/10/10 11:44:25;;;;;;;;;;;14.50;82.60;;;;;;5082853;28;20035;-66
2022/10/10 11:46:50;;;;;;;;;;;14.60;82.40;;;;;;5082246;28;19919;-66
2022/10/10 11:49:18;;;;;;;;;;;14.60;81.10;;;;;;5075492;28;19920;-66
2022/10/10 11:51:56;;;;;;;;;;;14.70;79.70;;;;;;5076154;28;19916;-65
2022/10/10 11:54:28;;;;;;;;;;;14.60;79.40;;;;;;5086466;28;19919;-65
2022/10/10 11:56:57;;;;;;;;;;;14.60;78.80;;;;;;5090818;28;20936;-65
2022/10/10 11:59:26;;;;;;;;;;;14.80;77.70;;;;;;5080201;28;19913;-68
2022/10/10 12:01:54;;;;;;;;;;;14.90;78.60;;;;;;5082270;28;20353;-66
2022/10/10 12:04:20;;;;;;;;;;;14.90;75.90;;;;;;5083550;28;19962;-65
2022/10/10 12:06:51;;;;;;;;;;;14.90;77.10;;;;;;5078218;28;19916;-66
2022/10/10 12:09:20;;;;;;;;;;;14.90;74.40;;;;;;5076753;28;19967;-65
2022/10/10 12:12:00;;;;;;;;;;;15.00;74.30;;;;;;5079640;28;20388;-66
2022/10/10 12:14:28;;;;;;;;;;;15.00;73.10;;;;;;5072041;28;20589;-66
2022/10/10 12:16:54;;;;;;;;;;;15.10;73.30;;;;;;5073515;28;19955;-65
2022/10/10 12:19:21;;;;;;;;;;;15.00;71.10;;;;;;5087959;28;20385;-65
2022/10/10 12:21:55;;;;;;;;;;;15.00;71.40;;;;;;5074439;28;19908;-65
2022/10/10 12:24:21;;;;;;;;;;;15.00;71.10;;;;;;5093774;28;19912;-65
2022/10/10 12:26:56;;;;;;;;;;;15.10;72.10;;;;;;5091463;28;20002;-66
2022/10/10 12:29:31;;;;;;;;;;;15.00;72.80;;;;;;5085347;28;19924;-67
2022/10/10 12:32:17;;;;;;;;;;;15.10;72.20;;;;;;5093443;28;20023;-66
2022/10/10 12:34:43;;;;;;;;;;;15.20;71.10;;;;;;5085286;28;19951;-66
2022/10/10 12:37:25;;;;;;;;;;;15.40;72.20;;;;;;5081460;28;19935;-66
2022/10/10 12:40:06;;;;;;;;;;;15.50;72.20;;;;;;5090055;28;20116;-65
2022/10/10 12:42:36;;;;;;;;;;;15.50;71.60;;;;;;5076084;28;20354;-66
2022/10/10 12:45:01;;;;;;;;;;;15.50;70.40;;;;;;5078453;28;19988;-67
2022/10/10 12:47:41;;;;;;;;;;;15.50;70.40;;;;;;5079367;28;20354;-65
2022/10/10 12:50:19;;;;;;;;;;;15.60;69.30;;;;;;5086038;28;19980;-65
2022/10/10 12:52:46;;;;;;;;;;;15.70;70.70;;;;;;5080788;28;19916;-66
2022/10/10 12:55:25;;;;;;;;;;;15.80;70.50;;;;;;5083523;28;19912;-66
2022/10/10 12:57:52;;;;;;;;;;;15.90;70.60;;;;;;5090355;28;19920;-67
2022/10/10 13:00:20;;;;;;;;;;;15.70;69.10;;;;;;5084725;28;20335;-65
2022/10/10 13:02:48;;;;;;;;;;;15.70;69.30;;;;;;5088635;28;19920;-66
2022/10/10 13:05:17;;;;;;;;;;;15.70;70.10;;;;;;5090375;28;19916;-66
2022/10/10 13:07:43;;;;;;;;;;;15.80;70.40;;;;;;5087085;28;20256;-67
2022/10/10 13:10:19;;;;;;;;;;;15.90;69.30;;;;;;5087560;28;19925;-66
2022/10/10 13:12:44;;;;;;;;;;;15.90;70.30;;;;;;5086597;28;19912;-65
2022/10/10 13:15:18;;;;;;;;;;;15.80;69.00;;;;;;5086714;28;19977;-65
2022/10/10 13:17:44;;;;;;;;;;;15.80;68.10;;;;;;5080310;28;20385;-66
2022/10/10 13:20:26;;;;;;;;;;;15.80;69.10;;;;;;5080557;28;19948;-65
2022/10/10 13:22:52;;;;;;;;;;;15.80;69.80;;;;;;5080221;28;19994;-67
2022/10/10 13:25:17;;;;;;;;;;;15.70;67.60;;;;;;5078470;28;19947;-67
2022/10/10 13:27:43;;;;;;;;;;;15.70;68.90;;;;;;5083003;28;19928;-67
2022/10/10 13:30:22;;;;;;;;;;;15.80;67.00;;;;;;5080327;28;20362;-66
2022/10/10 13:32:48;;;;;;;;;;;15.80;67.20;;;;;;5078217;28;19924;-66
2022/10/10 13:35:15;;;;;;;;;;;15.80;66.90;;;;;;5080992;28;19964;-66
2022/10/10 13:37:41;;;;;;;;;;;15.80;67.00;;;;;;5090764;28;19919;-65
2022/10/10 13:40:17;;;;;;;;;;;15.70;67.60;;;;;;5077040;28;19913;-66
2022/10/10 13:42:42;;;;;;;;;;;15.60;66.90;;;;;;5075975;28;19913;-66
2022/10/10 13:45:26;;;;;;;;;;;15.60;65.90;;;;;;5083360;28;19919;-66
2022/10/10 13:47:52;;;;;;;;;;;15.60;66.60;;;;;;5089612;28;20278;-66
2022/10/10 13:50:18;;;;;;;;;;;15.70;65.50;;;;;;5079040;28;19921;-66
2022/10/10 13:52:43;;;;;;;;;;;15.70;66.10;;;;;;5085700;28;20274;-66
2022/10/10 13:55:13;;;;;;;;;;;15.70;65.50;;;;;;5080554;28;19927;-66
2022/10/10 13:57:39;;;;;;;;;;;15.80;66.10;;;;;;5082522;28;19912;-65
2022/10/10 14:00:07;;;;;;;;;;;15.70;66.10;;;;;;5083808;28;19912;-67
2022/10/10 14:02:34;;;;;;;;;;;15.70;66.80;;;;;;5078433;28;19966;-66
2022/10/10 14:05:05;;;;;;;;;;;15.80;67.40;;;;;;5078294;28;20331;-66
2022/10/10 14:07:31;;;;;;;;;;;15.90;68.00;;;;;;5102762;28;20559;-65
2022/10/10 14:09:58;;;;;;;;;;;15.90;66.50;;;;;;5084510;28;20304;-66
2022/10/10 14:12:26;;;;;;;;;;;16.00;68.70;;;;;;5076579;28;19912;-66
2022/10/10 14:14:52;;;;;;;;;;;16.00;67.60;;;;;;5081551;28;19926;-65
2022/10/10 14:17:17;;;;;;;;;;;16.00;67.60;;;;;;5090004;28;19934;-66
2022/10/10 14:19:44;;;;;;;;;;;16.10;67.60;;;;;;5086744;28;19912;-66
2022/10/10 14:22:09;;;;;;;;;;;16.10;68.30;;;;;;5086497;28;19963;-66
2022/10/10 14:24:35;;;;;;;;;;;16.00;68.90;;;;;;5089886;28;19912;-65